sensor_id;sensor_type;location;lat;lon;timestamp;temperature;humidity
9215;DHT22;4642;51.364;6.788;2024-02-26T00:00:34;6.10;1.00
9215;DHT22;4642;51.364;6.788;2024-02-26T00:03:00;6.00;1.00
9215;DHT22;4642;51.364;6.788;2024-02-26T00:05:26;6.00;1.00
9215;DHT22;4642;51.364;6.788;2024-02-26T00:07:51;6.00;1.00
9215;DHT22;4642;51.364;6.788;2024-02-26T00:10:17;6.00;1.00
9215;DHT22;4642;51.364;6.788;2024-02-26T00:12:42;6.00;1.00
9215;DHT22;4642;51.364;6.788;2024-02-26T00:15:08;6.00;1.00
9215;DHT22;4642;51.364;6.788;2024-02-26T00:17:34;6.00;1.00
9215;DHT22;4642;51.364;6.788;2024-02-26T00:20:00;6.00;1.00
9215;DHT22;4642;51.364;6.788;2024-02-26T00:22:26;6.00;1.00
9215;DHT22;4642;51.364;6.788;2024-02-26T00:24:52;6.10;1.00
9215;DHT22;4642;51.364;6.788;2024-02-26T00:27:17;6.10;1.00
9215;DHT22;4642;51.364;6.788;2024-02-26T00:29:43;6.10;1.00
9215;DHT22;4642;51.364;6.788;2024-02-26T00:32:09;6.10;1.00
9215;DHT22;4642;51.364;6.788;2024-02-26T00:34:34;6.10;1.00
9215;DHT22;4642;51.364;6.788;2024-02-26T00:37:00;6.10;1.00
9215;DHT22;4642;51.364;6.788;2024-02-26T00:39:25;6.10;1.00
9215;DHT22;4642;51.364;6.788;2024-02-26T00:41:51;6.10;1.00
9215;DHT22;4642;51.364;6.788;2024-02-26T00:44:17;6.10;1.00
9215;DHT22;4642;51.364;6.788;2024-02-26T00:46:42;6.10;1.00
9215;DHT22;4642;51.364;6.788;2024-02-26T00:49:08;6.20;1.00
9215;DHT22;4642;51.364;6.788;2024-02-26T00:51:33;6.20;1.00
9215;DHT22;4642;51.364;6.788;2024-02-26T00:53:59;6.20;1.00
9215;DHT22;4642;51.364;6.788;2024-02-26T00:56:24;6.20;1.00
9215;DHT22;4642;51.364;6.788;2024-02-26T00:58:50;6.20;1.00
9215;DHT22;4642;51.364;6.788;2024-02-26T01:01:16;6.20;1.00
9215;DHT22;4642;51.364;6.788;2024-02-26T01:03:42;6.20;1.00
9215;DHT22;4642;51.364;6.788;2024-02-26T01:06:08;6.20;1.00
9215;DHT22;4642;51.364;6.788;2024-02-26T01:08:33;6.20;1.00
9215;DHT22;4642;51.364;6.788;2024-02-26T01:11:01;6.20;1.00
9215;DHT22;4642;51.364;6.788;2024-02-26T01:13:26;6.20;1.00
9215;DHT22;4642;51.364;6.788;2024-02-26T01:15:52;6.10;1.00
9215;DHT22;4642;51.364;6.788;2024-02-26T01:18:17;6.20;1.00
9215;DHT22;4642;51.364;6.788;2024-02-26T01:20:43;6.20;1.00
9215;DHT22;4642;51.364;6.788;2024-02-26T01:23:08;6.10;1.00
9215;DHT22;4642;51.364;6.788;2024-02-26T01:25:34;6.00;1.00
9215;DHT22;4642;51.364;6.788;2024-02-26T01:27:59;6.10;1.00
9215;DHT22;4642;51.364;6.788;2024-02-26T01:30:25;6.10;1.00
9215;DHT22;4642;51.364;6.788;2024-02-26T01:32:50;6.10;1.00
9215;DHT22;4642;51.364;6.788;2024-02-26T01:35:16;6.10;1.00
9215;DHT22;4642;51.364;6.788;2024-02-26T01:37:42;6.10;1.00
9215;DHT22;4642;51.364;6.788;2024-02-26T01:40:08;6.00;1.00
9215;DHT22;4642;51.364;6.788;2024-02-26T01:42:35;6.00;1.00
9215;DHT22;4642;51.364;6.788;2024-02-26T01:45:03;6.00;1.00
9215;DHT22;4642;51.364;6.788;2024-02-26T01:47:29;6.00;1.00
9215;DHT22;4642;51.364;6.788;2024-02-26T01:49:55;6.00;1.00
9215;DHT22;4642;51.364;6.788;2024-02-26T01:52:21;6.00;1.00
9215;DHT22;4642;51.364;6.788;2024-02-26T01:54:47;6.00;1.00
9215;DHT22;4642;51.364;6.788;2024-02-26T01:57:14;6.00;1.00
9215;DHT22;4642;51.364;6.788;2024-02-26T01:59:39;6.00;1.00
9215;DHT22;4642;51.364;6.788;2024-02-26T02:02:07;6.00;1.00
9215;DHT22;4642;51.364;6.788;2024-02-26T02:04:35;6.00;1.00
9215;DHT22;4642;51.364;6.788;2024-02-26T02:07:01;6.00;1.00
9215;DHT22;4642;51.364;6.788;2024-02-26T02:09:27;6.00;1.00
9215;DHT22;4642;51.364;6.788;2024-02-26T02:11:53;6.00;1.00
9215;DHT22;4642;51.364;6.788;2024-02-26T02:14:19;6.00;1.00
9215;DHT22;4642;51.364;6.788;2024-02-26T02:16:45;5.90;1.00
9215;DHT22;4642;51.364;6.788;2024-02-26T02:19:11;6.00;1.00
9215;DHT22;4642;51.364;6.788;2024-02-26T02:21:36;5.90;1.00
9215;DHT22;4642;51.364;6.788;2024-02-26T02:24:02;6.00;1.00
9215;DHT22;4642;51.364;6.788;2024-02-26T02:26:28;5.90;1.00
9215;DHT22;4642;51.364;6.788;2024-02-26T02:28:53;5.90;1.00
9215;DHT22;4642;51.364;6.788;2024-02-26T02:31:19;5.90;1.00
9215;DHT22;4642;51.364;6.788;2024-02-26T02:33:45;5.90;1.00
9215;DHT22;4642;51.364;6.788;2024-02-26T02:36:10;6.00;1.00
9215;DHT22;4642;51.364;6.788;2024-02-26T02:38:37;6.00;1.00
9215;DHT22;4642;51.364;6.788;2024-02-26T02:41:03;6.00;1.00
9215;DHT22;4642;51.364;6.788;2024-02-26T02:43:29;6.00;1.00
9215;DHT22;4642;51.364;6.788;2024-02-26T02:45:54;6.00;1.00
9215;DHT22;4642;51.364;6.788;2024-02-26T02:48:20;6.00;1.00
9215;DHT22;4642;51.364;6.788;2024-02-26T02:50:45;5.90;1.00
9215;DHT22;4642;51.364;6.788;2024-02-26T02:53:11;5.90;16.50
9215;DHT22;4642;51.364;6.788;2024-02-26T02:55:36;5.90;34.60
9215;DHT22;4642;51.364;6.788;2024-02-26T02:58:02;5.90;41.50
9215;DHT22;4642;51.364;6.788;2024-02-26T03:00:27;5.90;95.20
9215;DHT22;4642;51.364;6.788;2024-02-26T03:02:53;5.90;99.90
9215;DHT22;4642;51.364;6.788;2024-02-26T03:05:19;5.90;99.90
9215;DHT22;4642;51.364;6.788;2024-02-26T03:07:44;5.90;99.90
9215;DHT22;4642;51.364;6.788;2024-02-26T03:10:10;5.80;99.90
9215;DHT22;4642;51.364;6.788;2024-02-26T03:12:35;5.80;99.90
9215;DHT22;4642;51.364;6.788;2024-02-26T03:15:01;5.80;99.90
9215;DHT22;4642;51.364;6.788;2024-02-26T03:17:28;5.60;99.90
9215;DHT22;4642;51.364;6.788;2024-02-26T03:19:54;5.70;99.90
9215;DHT22;4642;51.364;6.788;2024-02-26T03:22:20;5.70;99.90
9215;DHT22;4642;51.364;6.788;2024-02-26T03:24:46;5.70;99.90
9215;DHT22;4642;51.364;6.788;2024-02-26T03:27:11;5.70;99.90
9215;DHT22;4642;51.364;6.788;2024-02-26T03:29:37;5.60;99.90
9215;DHT22;4642;51.364;6.788;2024-02-26T03:32:04;5.60;99.90
9215;DHT22;4642;51.364;6.788;2024-02-26T03:34:30;5.60;99.90
9215;DHT22;4642;51.364;6.788;2024-02-26T03:36:56;5.60;99.90
9215;DHT22;4642;51.364;6.788;2024-02-26T03:39:21;5.60;99.90
9215;DHT22;4642;51.364;6.788;2024-02-26T03:41:48;5.60;99.90
9215;DHT22;4642;51.364;6.788;2024-02-26T03:44:13;5.60;99.90
9215;DHT22;4642;51.364;6.788;2024-02-26T03:46:39;5.60;99.90
9215;DHT22;4642;51.364;6.788;2024-02-26T03:49:04;5.50;99.90
9215;DHT22;4642;51.364;6.788;2024-02-26T03:51:30;5.60;99.90
9215;DHT22;4642;51.364;6.788;2024-02-26T03:54:00;5.50;99.90
9215;DHT22;4642;51.364;6.788;2024-02-26T03:56:26;5.50;99.90
9215;DHT22;4642;51.364;6.788;2024-02-26T03:58:52;5.50;99.90
9215;DHT22;4642;51.364;6.788;2024-02-26T04:01:18;5.50;99.90
9215;DHT22;4642;51.364;6.788;2024-02-26T04:03:43;5.50;99.90
9215;DHT22;4642;51.364;6.788;2024-02-26T04:06:09;5.50;99.90
9215;DHT22;4642;51.364;6.788;2024-02-26T04:08:44;5.50;99.90
9215;DHT22;4642;51.364;6.788;2024-02-26T04:11:10;5.50;99.90
9215;DHT22;4642;51.364;6.788;2024-02-26T04:13:36;5.40;99.90
9215;DHT22;4642;51.364;6.788;2024-02-26T04:16:06;5.40;99.90
9215;DHT22;4642;51.364;6.788;2024-02-26T04:18:32;5.40;99.90
9215;DHT22;4642;51.364;6.788;2024-02-26T04:20:57;5.40;99.90
9215;DHT22;4642;51.364;6.788;2024-02-26T04:23:23;5.50;99.90
9215;DHT22;4642;51.364;6.788;2024-02-26T04:25:49;5.40;99.90
9215;DHT22;4642;51.364;6.788;2024-02-26T04:28:14;5.40;99.90
9215;DHT22;4642;51.364;6.788;2024-02-26T04:30:40;5.40;99.90
9215;DHT22;4642;51.364;6.788;2024-02-26T04:33:06;5.40;99.90
9215;DHT22;4642;51.364;6.788;2024-02-26T04:35:32;5.40;99.90
9215;DHT22;4642;51.364;6.788;2024-02-26T04:37:57;5.40;99.90
9215;DHT22;4642;51.364;6.788;2024-02-26T04:40:23;5.50;99.90
9215;DHT22;4642;51.364;6.788;2024-02-26T04:42:49;5.40;99.90
9215;DHT22;4642;51.364;6.788;2024-02-26T04:45:15;5.50;99.90
9215;DHT22;4642;51.364;6.788;2024-02-26T04:47:40;5.40;99.90
9215;DHT22;4642;51.364;6.788;2024-02-26T04:50:06;5.40;99.90
9215;DHT22;4642;51.364;6.788;2024-02-26T04:52:32;5.40;99.90
9215;DHT22;4642;51.364;6.788;2024-02-26T04:54:57;5.40;99.90
9215;DHT22;4642;51.364;6.788;2024-02-26T04:57:25;5.40;99.90
9215;DHT22;4642;51.364;6.788;2024-02-26T04:59:51;5.40;99.90
9215;DHT22;4642;51.364;6.788;2024-02-26T05:02:17;5.40;99.90
9215;DHT22;4642;51.364;6.788;2024-02-26T05:04:43;5.40;99.90
9215;DHT22;4642;51.364;6.788;2024-02-26T05:07:08;5.40;99.90
9215;DHT22;4642;51.364;6.788;2024-02-26T05:09:34;5.30;99.90
9215;DHT22;4642;51.364;6.788;2024-02-26T05:12:00;5.30;99.90
9215;DHT22;4642;51.364;6.788;2024-02-26T05:14:25;5.30;99.90
9215;DHT22;4642;51.364;6.788;2024-02-26T05:16:51;5.30;99.90
9215;DHT22;4642;51.364;6.788;2024-02-26T05:19:16;5.30;99.90
9215;DHT22;4642;51.364;6.788;2024-02-26T05:21:42;5.30;99.90
9215;DHT22;4642;51.364;6.788;2024-02-26T05:24:09;5.30;99.90
9215;DHT22;4642;51.364;6.788;2024-02-26T05:26:35;5.30;99.90
9215;DHT22;4642;51.364;6.788;2024-02-26T05:29:00;5.30;99.90
9215;DHT22;4642;51.364;6.788;2024-02-26T05:31:26;5.30;99.90
9215;DHT22;4642;51.364;6.788;2024-02-26T05:33:52;5.30;99.90
9215;DHT22;4642;51.364;6.788;2024-02-26T05:36:20;5.30;99.90
9215;DHT22;4642;51.364;6.788;2024-02-26T05:38:46;5.20;99.90
9215;DHT22;4642;51.364;6.788;2024-02-26T05:41:12;5.30;99.90
9215;DHT22;4642;51.364;6.788;2024-02-26T05:43:37;5.30;99.90
9215;DHT22;4642;51.364;6.788;2024-02-26T05:46:03;5.20;99.90
9215;DHT22;4642;51.364;6.788;2024-02-26T05:48:28;5.20;99.90
9215;DHT22;4642;51.364;6.788;2024-02-26T05:50:54;5.20;99.90
9215;DHT22;4642;51.364;6.788;2024-02-26T05:53:19;5.20;99.90
9215;DHT22;4642;51.364;6.788;2024-02-26T05:55:45;5.20;99.90
9215;DHT22;4642;51.364;6.788;2024-02-26T05:58:10;5.20;99.90
9215;DHT22;4642;51.364;6.788;2024-02-26T06:00:36;5.20;99.90
9215;DHT22;4642;51.364;6.788;2024-02-26T06:03:01;5.20;99.90
9215;DHT22;4642;51.364;6.788;2024-02-26T06:05:27;5.20;99.90
9215;DHT22;4642;51.364;6.788;2024-02-26T06:07:53;5.20;99.90
9215;DHT22;4642;51.364;6.788;2024-02-26T06:10:19;5.20;99.90
9215;DHT22;4642;51.364;6.788;2024-02-26T06:12:47;5.20;99.90
9215;DHT22;4642;51.364;6.788;2024-02-26T06:15:12;5.20;99.90
9215;DHT22;4642;51.364;6.788;2024-02-26T06:17:38;5.20;99.90
9215;DHT22;4642;51.364;6.788;2024-02-26T06:20:03;5.20;99.90
9215;DHT22;4642;51.364;6.788;2024-02-26T06:22:31;5.20;99.90
9215;DHT22;4642;51.364;6.788;2024-02-26T06:24:57;5.10;99.90
9215;DHT22;4642;51.364;6.788;2024-02-26T06:27:23;5.10;99.90
9215;DHT22;4642;51.364;6.788;2024-02-26T06:29:49;5.10;99.90
9215;DHT22;4642;51.364;6.788;2024-02-26T06:32:14;5.20;99.90
9215;DHT22;4642;51.364;6.788;2024-02-26T06:34:40;5.20;99.90
9215;DHT22;4642;51.364;6.788;2024-02-26T06:37:08;5.20;99.90
9215;DHT22;4642;51.364;6.788;2024-02-26T06:39:33;5.20;99.90
9215;DHT22;4642;51.364;6.788;2024-02-26T06:41:59;5.20;99.90
9215;DHT22;4642;51.364;6.788;2024-02-26T06:44:28;5.20;99.90
9215;DHT22;4642;51.364;6.788;2024-02-26T06:47:00;5.20;99.90
9215;DHT22;4642;51.364;6.788;2024-02-26T06:49:27;5.20;99.90
9215;DHT22;4642;51.364;6.788;2024-02-26T06:51:53;5.20;99.90
9215;DHT22;4642;51.364;6.788;2024-02-26T06:54:18;5.20;99.90
9215;DHT22;4642;51.364;6.788;2024-02-26T06:56:44;5.20;99.90
9215;DHT22;4642;51.364;6.788;2024-02-26T06:59:09;5.20;99.90
9215;DHT22;4642;51.364;6.788;2024-02-26T07:01:35;5.20;99.90
9215;DHT22;4642;51.364;6.788;2024-02-26T07:04:01;5.20;99.90
9215;DHT22;4642;51.364;6.788;2024-02-26T07:06:29;5.20;99.90
9215;DHT22;4642;51.364;6.788;2024-02-26T07:08:55;5.30;99.90
9215;DHT22;4642;51.364;6.788;2024-02-26T07:11:21;5.30;99.90
9215;DHT22;4642;51.364;6.788;2024-02-26T07:13:47;5.30;99.90
9215;DHT22;4642;51.364;6.788;2024-02-26T07:16:12;5.30;99.90
9215;DHT22;4642;51.364;6.788;2024-02-26T07:18:41;5.30;99.90
9215;DHT22;4642;51.364;6.788;2024-02-26T07:21:08;5.30;99.90
9215;DHT22;4642;51.364;6.788;2024-02-26T07:23:34;5.30;99.90
9215;DHT22;4642;51.364;6.788;2024-02-26T07:25:59;5.30;99.90
9215;DHT22;4642;51.364;6.788;2024-02-26T07:28:25;5.30;99.90
9215;DHT22;4642;51.364;6.788;2024-02-26T07:30:50;5.30;99.90
9215;DHT22;4642;51.364;6.788;2024-02-26T07:33:16;5.30;99.90
9215;DHT22;4642;51.364;6.788;2024-02-26T07:35:42;5.30;99.90
9215;DHT22;4642;51.364;6.788;2024-02-26T07:38:07;5.40;99.90
9215;DHT22;4642;51.364;6.788;2024-02-26T07:40:33;5.40;99.90
9215;DHT22;4642;51.364;6.788;2024-02-26T07:42:58;5.40;99.90
9215;DHT22;4642;51.364;6.788;2024-02-26T07:45:24;5.40;99.90
9215;DHT22;4642;51.364;6.788;2024-02-26T07:47:50;5.40;99.90
9215;DHT22;4642;51.364;6.788;2024-02-26T07:50:17;5.30;99.90
9215;DHT22;4642;51.364;6.788;2024-02-26T07:52:44;5.30;99.90
9215;DHT22;4642;51.364;6.788;2024-02-26T07:55:10;5.30;99.90
9215;DHT22;4642;51.364;6.788;2024-02-26T07:57:36;5.30;99.90
9215;DHT22;4642;51.364;6.788;2024-02-26T08:00:03;5.30;99.90
9215;DHT22;4642;51.364;6.788;2024-02-26T08:02:28;5.30;99.90
9215;DHT22;4642;51.364;6.788;2024-02-26T08:04:54;5.30;99.90
9215;DHT22;4642;51.364;6.788;2024-02-26T08:07:19;5.30;99.90
9215;DHT22;4642;51.364;6.788;2024-02-26T08:09:46;5.30;99.90
9215;DHT22;4642;51.364;6.788;2024-02-26T08:12:12;5.30;99.90
9215;DHT22;4642;51.364;6.788;2024-02-26T08:14:37;5.30;99.90
9215;DHT22;4642;51.364;6.788;2024-02-26T08:17:03;5.30;99.90
9215;DHT22;4642;51.364;6.788;2024-02-26T08:19:29;5.30;99.90
9215;DHT22;4642;51.364;6.788;2024-02-26T08:21:54;5.40;99.90
9215;DHT22;4642;51.364;6.788;2024-02-26T08:24:20;5.00;99.90
9215;DHT22;4642;51.364;6.788;2024-02-26T08:26:45;5.40;99.90
9215;DHT22;4642;51.364;6.788;2024-02-26T08:29:11;5.40;99.90
9215;DHT22;4642;51.364;6.788;2024-02-26T08:31:37;5.40;99.90
9215;DHT22;4642;51.364;6.788;2024-02-26T08:34:03;5.40;99.90
9215;DHT22;4642;51.364;6.788;2024-02-26T08:36:30;5.40;99.90
9215;DHT22;4642;51.364;6.788;2024-02-26T08:38:55;5.40;99.90
9215;DHT22;4642;51.364;6.788;2024-02-26T08:41:21;5.50;99.90
9215;DHT22;4642;51.364;6.788;2024-02-26T08:43:46;5.40;99.90
9215;DHT22;4642;51.364;6.788;2024-02-26T08:46:15;5.40;99.90
9215;DHT22;4642;51.364;6.788;2024-02-26T08:48:40;5.50;99.90
9215;DHT22;4642;51.364;6.788;2024-02-26T08:51:07;5.50;99.90
9215;DHT22;4642;51.364;6.788;2024-02-26T08:53:33;5.50;99.90
9215;DHT22;4642;51.364;6.788;2024-02-26T08:55:58;5.50;99.90
9215;DHT22;4642;51.364;6.788;2024-02-26T08:58:24;5.50;99.90
9215;DHT22;4642;51.364;6.788;2024-02-26T09:00:49;5.60;99.90
9215;DHT22;4642;51.364;6.788;2024-02-26T09:03:15;5.60;99.90
9215;DHT22;4642;51.364;6.788;2024-02-26T09:05:41;5.60;99.90
9215;DHT22;4642;51.364;6.788;2024-02-26T09:08:06;5.60;99.90
9215;DHT22;4642;51.364;6.788;2024-02-26T09:10:32;5.60;99.90
9215;DHT22;4642;51.364;6.788;2024-02-26T09:12:58;5.70;99.90
9215;DHT22;4642;51.364;6.788;2024-02-26T09:15:24;5.70;99.90
9215;DHT22;4642;51.364;6.788;2024-02-26T09:17:49;5.70;99.90
9215;DHT22;4642;51.364;6.788;2024-02-26T09:20:16;5.70;99.90
9215;DHT22;4642;51.364;6.788;2024-02-26T09:22:45;5.70;99.90
9215;DHT22;4642;51.364;6.788;2024-02-26T09:25:11;5.70;99.90
9215;DHT22;4642;51.364;6.788;2024-02-26T09:27:37;5.70;99.90
9215;DHT22;4642;51.364;6.788;2024-02-26T09:30:02;5.70;99.90
9215;DHT22;4642;51.364;6.788;2024-02-26T09:32:28;5.70;99.90
9215;DHT22;4642;51.364;6.788;2024-02-26T09:34:53;5.70;99.90
9215;DHT22;4642;51.364;6.788;2024-02-26T09:37:19;5.70;99.90
9215;DHT22;4642;51.364;6.788;2024-02-26T09:39:44;5.70;99.90
9215;DHT22;4642;51.364;6.788;2024-02-26T09:42:13;5.70;99.90
9215;DHT22;4642;51.364;6.788;2024-02-26T09:44:40;5.70;99.90
9215;DHT22;4642;51.364;6.788;2024-02-26T09:47:09;5.70;99.90
9215;DHT22;4642;51.364;6.788;2024-02-26T09:49:36;5.70;99.90
9215;DHT22;4642;51.364;6.788;2024-02-26T09:52:04;5.70;99.90
9215;DHT22;4642;51.364;6.788;2024-02-26T09:54:31;5.70;99.90
9215;DHT22;4642;51.364;6.788;2024-02-26T09:56:59;5.70;99.90
9215;DHT22;4642;51.364;6.788;2024-02-26T09:59:27;5.70;99.90
9215;DHT22;4642;51.364;6.788;2024-02-26T10:01:53;5.70;99.90
9215;DHT22;4642;51.364;6.788;2024-02-26T10:04:19;5.70;99.90
9215;DHT22;4642;51.364;6.788;2024-02-26T10:06:46;5.70;99.90
9215;DHT22;4642;51.364;6.788;2024-02-26T10:09:12;5.70;99.90
9215;DHT22;4642;51.364;6.788;2024-02-26T10:11:38;5.70;99.90
9215;DHT22;4642;51.364;6.788;2024-02-26T10:14:05;5.80;99.90
9215;DHT22;4642;51.364;6.788;2024-02-26T10:16:31;5.80;99.90
9215;DHT22;4642;51.364;6.788;2024-02-26T10:18:58;5.80;99.90
9215;DHT22;4642;51.364;6.788;2024-02-26T10:21:24;5.80;99.90
9215;DHT22;4642;51.364;6.788;2024-02-26T10:23:49;5.90;99.90
9215;DHT22;4642;51.364;6.788;2024-02-26T10:26:19;5.90;99.90
9215;DHT22;4642;51.364;6.788;2024-02-26T10:28:45;5.90;99.90
9215;DHT22;4642;51.364;6.788;2024-02-26T10:31:11;5.90;99.90
9215;DHT22;4642;51.364;6.788;2024-02-26T10:33:38;5.90;99.90
9215;DHT22;4642;51.364;6.788;2024-02-26T10:36:04;5.90;99.90
9215;DHT22;4642;51.364;6.788;2024-02-26T10:38:31;5.90;99.90
9215;DHT22;4642;51.364;6.788;2024-02-26T10:40:57;6.00;99.90
9215;DHT22;4642;51.364;6.788;2024-02-26T10:43:22;6.00;99.90
9215;DHT22;4642;51.364;6.788;2024-02-26T10:45:48;6.00;99.90
9215;DHT22;4642;51.364;6.788;2024-02-26T10:48:14;6.00;99.90
9215;DHT22;4642;51.364;6.788;2024-02-26T10:50:40;6.00;99.90
9215;DHT22;4642;51.364;6.788;2024-02-26T10:53:22;6.00;99.90
9215;DHT22;4642;51.364;6.788;2024-02-26T10:56:08;6.10;99.90
9215;DHT22;4642;51.364;6.788;2024-02-26T10:58:36;6.10;99.90
9215;DHT22;4642;51.364;6.788;2024-02-26T11:01:03;6.20;99.90
9215;DHT22;4642;51.364;6.788;2024-02-26T11:03:31;6.20;99.90
9215;DHT22;4642;51.364;6.788;2024-02-26T11:05:58;6.10;99.90
9215;DHT22;4642;51.364;6.788;2024-02-26T11:08:26;6.20;99.90
9215;DHT22;4642;51.364;6.788;2024-02-26T11:10:53;6.20;99.90
9215;DHT22;4642;51.364;6.788;2024-02-26T11:13:21;6.30;99.90
9215;DHT22;4642;51.364;6.788;2024-02-26T11:15:47;6.30;99.90
9215;DHT22;4642;51.364;6.788;2024-02-26T11:18:15;6.30;99.90
9215;DHT22;4642;51.364;6.788;2024-02-26T11:20:41;6.40;99.90
9215;DHT22;4642;51.364;6.788;2024-02-26T11:23:08;6.40;99.90
9215;DHT22;4642;51.364;6.788;2024-02-26T11:25:35;6.40;99.90
9215;DHT22;4642;51.364;6.788;2024-02-26T11:28:04;6.40;99.90
9215;DHT22;4642;51.364;6.788;2024-02-26T11:30:34;6.40;99.90
9215;DHT22;4642;51.364;6.788;2024-02-26T11:33:00;6.50;99.90
9215;DHT22;4642;51.364;6.788;2024-02-26T11:35:26;6.50;99.90
9215;DHT22;4642;51.364;6.788;2024-02-26T11:37:57;6.50;99.90
9215;DHT22;4642;51.364;6.788;2024-02-26T11:40:26;6.60;99.90
9215;DHT22;4642;51.364;6.788;2024-02-26T11:42:53;6.70;99.90
9215;DHT22;4642;51.364;6.788;2024-02-26T11:45:54;6.80;99.90
9215;DHT22;4642;51.364;6.788;2024-02-26T11:48:23;6.90;99.90
9215;DHT22;4642;51.364;6.788;2024-02-26T11:50:51;7.00;99.90
9215;DHT22;4642;51.364;6.788;2024-02-26T11:53:20;7.00;99.90
9215;DHT22;4642;51.364;6.788;2024-02-26T11:55:46;7.00;99.90
9215;DHT22;4642;51.364;6.788;2024-02-26T11:58:12;7.00;99.90
9215;DHT22;4642;51.364;6.788;2024-02-26T12:00:40;7.10;99.90
9215;DHT22;4642;51.364;6.788;2024-02-26T12:03:06;7.10;99.90
9215;DHT22;4642;51.364;6.788;2024-02-26T12:05:34;7.00;99.90
9215;DHT22;4642;51.364;6.788;2024-02-26T12:08:03;7.00;99.90
9215;DHT22;4642;51.364;6.788;2024-02-26T12:10:33;7.00;99.90
9215;DHT22;4642;51.364;6.788;2024-02-26T12:13:10;7.00;99.90
9215;DHT22;4642;51.364;6.788;2024-02-26T12:15:41;7.00;99.90
9215;DHT22;4642;51.364;6.788;2024-02-26T12:18:08;7.10;99.90
9215;DHT22;4642;51.364;6.788;2024-02-26T12:20:36;7.10;99.90
9215;DHT22;4642;51.364;6.788;2024-02-26T12:23:02;7.10;99.90
9215;DHT22;4642;51.364;6.788;2024-02-26T12:25:30;7.00;99.90
9215;DHT22;4642;51.364;6.788;2024-02-26T12:27:57;7.00;99.90
9215;DHT22;4642;51.364;6.788;2024-02-26T12:30:23;7.10;99.90
9215;DHT22;4642;51.364;6.788;2024-02-26T12:32:50;7.10;99.90
9215;DHT22;4642;51.364;6.788;2024-02-26T12:35:17;7.10;99.90
9215;DHT22;4642;51.364;6.788;2024-02-26T12:37:43;7.10;99.90
9215;DHT22;4642;51.364;6.788;2024-02-26T12:40:10;7.10;99.90
9215;DHT22;4642;51.364;6.788;2024-02-26T12:42:37;7.10;99.90
9215;DHT22;4642;51.364;6.788;2024-02-26T12:45:12;7.10;99.90
9215;DHT22;4642;51.364;6.788;2024-02-26T12:47:45;7.10;99.90
9215;DHT22;4642;51.364;6.788;2024-02-26T12:50:16;7.10;99.90
9215;DHT22;4642;51.364;6.788;2024-02-26T12:52:46;7.10;99.90
9215;DHT22;4642;51.364;6.788;2024-02-26T12:55:15;7.10;99.90
9215;DHT22;4642;51.364;6.788;2024-02-26T12:57:41;7.00;99.90
9215;DHT22;4642;51.364;6.788;2024-02-26T13:00:15;7.10;99.90
9215;DHT22;4642;51.364;6.788;2024-02-26T13:02:41;7.10;99.90
9215;DHT22;4642;51.364;6.788;2024-02-26T13:05:12;7.10;99.90
9215;DHT22;4642;51.364;6.788;2024-02-26T13:07:45;7.10;99.90
9215;DHT22;4642;51.364;6.788;2024-02-26T13:10:13;7.10;99.90
9215;DHT22;4642;51.364;6.788;2024-02-26T13:12:48;7.10;99.90
9215;DHT22;4642;51.364;6.788;2024-02-26T13:15:21;7.20;99.90
9215;DHT22;4642;51.364;6.788;2024-02-26T13:17:48;7.10;99.90
9215;DHT22;4642;51.364;6.788;2024-02-26T13:20:26;7.10;99.90
9215;DHT22;4642;51.364;6.788;2024-02-26T13:22:51;7.00;99.90
9215;DHT22;4642;51.364;6.788;2024-02-26T13:25:24;7.10;99.90
9215;DHT22;4642;51.364;6.788;2024-02-26T13:27:50;7.10;99.90
9215;DHT22;4642;51.364;6.788;2024-02-26T13:30:15;7.10;99.90
9215;DHT22;4642;51.364;6.788;2024-02-26T13:32:41;7.10;99.90
9215;DHT22;4642;51.364;6.788;2024-02-26T13:35:09;7.10;99.90
9215;DHT22;4642;51.364;6.788;2024-02-26T13:37:36;7.10;99.90
9215;DHT22;4642;51.364;6.788;2024-02-26T13:40:09;7.10;99.90
9215;DHT22;4642;51.364;6.788;2024-02-26T13:42:36;7.10;99.90
9215;DHT22;4642;51.364;6.788;2024-02-26T13:45:02;7.10;99.90
9215;DHT22;4642;51.364;6.788;2024-02-26T13:47:28;7.10;99.90
9215;DHT22;4642;51.364;6.788;2024-02-26T13:49:53;7.20;99.90
9215;DHT22;4642;51.364;6.788;2024-02-26T13:52:19;7.10;99.90
9215;DHT22;4642;51.364;6.788;2024-02-26T13:54:46;7.10;99.90
9215;DHT22;4642;51.364;6.788;2024-02-26T13:57:11;7.10;99.90
9215;DHT22;4642;51.364;6.788;2024-02-26T13:59:37;7.10;99.90
9215;DHT22;4642;51.364;6.788;2024-02-26T14:02:07;7.10;99.90
9215;DHT22;4642;51.364;6.788;2024-02-26T14:04:32;7.20;99.90
9215;DHT22;4642;51.364;6.788;2024-02-26T14:06:58;7.20;99.90
9215;DHT22;4642;51.364;6.788;2024-02-26T14:09:23;7.20;99.90
9215;DHT22;4642;51.364;6.788;2024-02-26T14:11:49;7.20;99.90
9215;DHT22;4642;51.364;6.788;2024-02-26T14:14:14;7.30;99.90
9215;DHT22;4642;51.364;6.788;2024-02-26T14:16:40;7.20;99.90
9215;DHT22;4642;51.364;6.788;2024-02-26T14:19:06;7.30;99.90
9215;DHT22;4642;51.364;6.788;2024-02-26T14:21:31;7.40;99.90
9215;DHT22;4642;51.364;6.788;2024-02-26T14:23:57;7.30;99.90
9215;DHT22;4642;51.364;6.788;2024-02-26T14:26:23;7.30;99.90
9215;DHT22;4642;51.364;6.788;2024-02-26T14:28:49;7.30;99.90
9215;DHT22;4642;51.364;6.788;2024-02-26T14:31:17;7.30;99.90
9215;DHT22;4642;51.364;6.788;2024-02-26T14:33:43;7.30;99.90
9215;DHT22;4642;51.364;6.788;2024-02-26T14:36:09;7.30;99.90
9215;DHT22;4642;51.364;6.788;2024-02-26T14:38:35;7.20;99.90
9215;DHT22;4642;51.364;6.788;2024-02-26T14:41:01;7.20;99.90
9215;DHT22;4642;51.364;6.788;2024-02-26T14:43:27;7.20;99.90
9215;DHT22;4642;51.364;6.788;2024-02-26T14:45:52;7.20;99.90
9215;DHT22;4642;51.364;6.788;2024-02-26T14:48:18;7.20;99.90
9215;DHT22;4642;51.364;6.788;2024-02-26T14:50:44;7.20;99.90
9215;DHT22;4642;51.364;6.788;2024-02-26T14:53:09;7.20;99.90
9215;DHT22;4642;51.364;6.788;2024-02-26T14:55:34;7.20;99.90
9215;DHT22;4642;51.364;6.788;2024-02-26T14:58:00;7.20;99.90
9215;DHT22;4642;51.364;6.788;2024-02-26T15:00:25;7.20;99.90
9215;DHT22;4642;51.364;6.788;2024-02-26T15:02:51;7.20;99.90
9215;DHT22;4642;51.364;6.788;2024-02-26T15:05:18;7.10;99.90
9215;DHT22;4642;51.364;6.788;2024-02-26T15:07:45;7.10;99.90
9215;DHT22;4642;51.364;6.788;2024-02-26T15:10:10;7.10;99.90
9215;DHT22;4642;51.364;6.788;2024-02-26T15:12:36;7.20;99.90
9215;DHT22;4642;51.364;6.788;2024-02-26T15:15:02;7.20;99.90
9215;DHT22;4642;51.364;6.788;2024-02-26T15:17:28;7.10;99.90
9215;DHT22;4642;51.364;6.788;2024-02-26T15:19:54;7.10;99.90
9215;DHT22;4642;51.364;6.788;2024-02-26T15:22:21;7.10;99.90
9215;DHT22;4642;51.364;6.788;2024-02-26T15:24:47;7.10;99.90
9215;DHT22;4642;51.364;6.788;2024-02-26T15:27:12;7.10;99.90
9215;DHT22;4642;51.364;6.788;2024-02-26T15:29:38;7.10;99.90
9215;DHT22;4642;51.364;6.788;2024-02-26T15:32:05;7.00;99.90
9215;DHT22;4642;51.364;6.788;2024-02-26T15:34:30;7.00;99.90
9215;DHT22;4642;51.364;6.788;2024-02-26T15:36:56;7.00;99.90
9215;DHT22;4642;51.364;6.788;2024-02-26T15:39:21;7.00;99.90
9215;DHT22;4642;51.364;6.788;2024-02-26T15:41:47;7.10;99.90
9215;DHT22;4642;51.364;6.788;2024-02-26T15:44:12;7.00;99.90
9215;DHT22;4642;51.364;6.788;2024-02-26T15:46:41;7.00;99.90
9215;DHT22;4642;51.364;6.788;2024-02-26T15:49:07;7.00;99.90
9215;DHT22;4642;51.364;6.788;2024-02-26T15:51:33;7.00;99.90
9215;DHT22;4642;51.364;6.788;2024-02-26T15:53:59;7.00;99.90
9215;DHT22;4642;51.364;6.788;2024-02-26T15:56:24;6.90;99.90
9215;DHT22;4642;51.364;6.788;2024-02-26T15:58:51;7.00;99.90
9215;DHT22;4642;51.364;6.788;2024-02-26T16:01:17;7.00;99.90
9215;DHT22;4642;51.364;6.788;2024-02-26T16:03:43;6.90;99.90
9215;DHT22;4642;51.364;6.788;2024-02-26T16:06:36;7.00;99.90
9215;DHT22;4642;51.364;6.788;2024-02-26T16:08:59;6.90;99.90
9215;DHT22;4642;51.364;6.788;2024-02-26T16:11:26;6.90;99.90
9215;DHT22;4642;51.364;6.788;2024-02-26T16:14:03;6.90;99.90
9215;DHT22;4642;51.364;6.788;2024-02-26T16:16:34;6.90;99.90